• Join FlightAware (Why Join?)
  • Login
  • US Flag 
09:10AM EDT


 

Airport Tracker/Info


-or-


 

Live Flight TrackerFlight Track Log ✈ AAL1219 ✈ 03-Jul-2014 ✈ KDFW - KSAT

Flight Track Log - Related Links

Times and Time Zones

All times are in EDT time to prevent confusion due to time zone crossing. See the AAL1219 flight status page for this flight to view local times or setup timezone preferences in your user account.

Time Position Orientation Groundspeed Altitude Reporting Facility
EDT Latitude Longitude Course Direction KTS MPH feet Rate Location/Type
12:00AM 32.8833 -97.0333 196° South 187 215 1,400  Level Dallas / Fort Worth TRACON
12:01AM 32.8333 -97.0333 180° South 215 247 3,000 2,340 Climbing Dallas / Fort Worth TRACON
12:02AM 32.6807 -97.1333 157° South  Level Estimated
12:02AM 32.7400 -97.0322 179° South 251 289 6,900  Level Fort Worth Center
12:03AM 32.5726 -97.1808 196° South  Level Estimated
12:03AM 32.6631 -97.0275 177° South 273 314 9,700  Level Fort Worth Center
12:04AM 32.4644 -97.2282 190° South  Level Estimated
12:04AM 32.5842 -97.0639 201° Southwest 315 362 11,300  Level Fort Worth Center
12:05AM 32.3563 -97.2755 196° South  Level Estimated
12:05AM 32.4961 -97.1161 207° Southwest 358 412 13,400  Level Fort Worth Center
12:06AM 32.3811 -97.1325 187° South 384 442 16,400 2,400 Climbing Fort Worth Center
12:07AM 32.2731 -97.1569 191° South 392 451 18,400 1,860 Climbing Fort Worth Center
12:08AM 32.1592 -97.1764 188° South 413 475 20,300 1,860 Climbing Fort Worth Center
12:09AM 32.0403 -97.2017 190° South 421 484 22,300 1,680 Climbing Fort Worth Center
12:11AM 31.9350 -97.2208 189° South 433 498 23,800 1,500 Climbing Fort Worth Center
12:12AM 31.8133 -97.2461 190° South 442 509 25,400 1,500 Climbing Fort Worth Center
12:13AM 31.6875 -97.2711 190° South 454 522 26,900 1,620 Climbing Fort Worth Center
12:14AM 31.5503 -97.3469 205° Southwest 457 526 28,800 1,500 Climbing Fort Worth Center
12:15AM 31.4386 -97.4144 207° Southwest 457 526 30,000 540 Climbing Fort Worth Center
12:16AM 31.3261 -97.4772 205° Southwest 453 521 30,000  Level Fort Worth Center
12:17AM 31.2136 -97.5406 206° Southwest 453 521 30,000  Level Fort Worth Center
12:18AM 31.1019 -97.6058 207° Southwest 452 520 30,000  Level Fort Worth Center
12:19AM 30.9897 -97.6689 206° Southwest 452 520 30,000 -300 Level Fort Worth Center
12:20AM 30.8775 -97.7303 205° Southwest 452 520 29,400 -1,380 Descending Fort Worth Center
12:20AM 30.7850 -97.7806 205° Southwest 453 521 27,500 -2,520 Descending Houston Center
12:21AM 30.6489 -97.8553 205° Southwest 455 524 24,800 -2,460 Descending Houston Center
12:22AM 30.5381 -97.9181 206° Southwest 448 516 22,600 -2,220 Descending Houston Center
12:24AM 30.4317 -97.9758 205° Southwest 427 491 20,400 -2,220 Descending Houston Center
12:25AM 30.3297 -98.0331 206° Southwest 415 478 18,200 -2,100 Descending Houston Center
12:25AM 30.2353 -98.0875 206° Southwest 391 450 16,300 -2,040 Descending Houston Center
12:27AM 30.1344 -98.1417 205° Southwest 377 434 14,100 -1,620 Descending Houston Center
12:28AM 30.0458 -98.1978 209° Southwest 364 419 13,000 -900 Descending Houston Center
12:29AM 29.9633 -98.2533 210° Southwest 341 392 12,300 -900 Descending Houston Center
12:30AM 29.8886 -98.3011 209° Southwest 311 358 11,200 -1,440 Descending Houston Center
12:31AM 29.8122 -98.3511 210° Southwest 299 344 9,400 -1,680 Descending Houston Center
12:32AM 29.7439 -98.3964 210° Southwest 288 331 7,900 -1,560 Descending Houston Center
12:33AM 29.6856 -98.4539 221° Southwest 282 325 6,300 -1,500 Descending Houston Center
12:34AM 29.6342 -98.5178 227° Southwest 279 321 4,900 -1,200 Descending Houston Center
12:35AM 29.5856 -98.5814 229° Southwest 270 311 4,000 -600 Descending Houston Center
12:36AM 29.5314 -98.6117 206° Southwest 218 251 3,800 -780 Descending Houston Center
12:37AM 29.4831 -98.5881 157° South 198 228 2,500 -660 Descending Houston Center
12:38AM 29.4728 -98.5372 103° East 173 199 2,500 -480 Level Houston Center
12:39AM 29.4994 -98.4947 54° Northeast 172 198 1,600 -900 Descending Houston Center
12:40AM 29.5250 -98.4683 42° Northeast 149 171 800 -840 Descending Houston Center